createdAt,value
2023-03-21T00:02:29.014Z,101095.81
2023-03-21T00:05:16.048Z,101091.50
2023-03-21T00:08:02.889Z,101092.38
2023-03-21T00:10:47.967Z,101094.09
2023-03-21T00:13:33.666Z,101096.69
2023-03-21T00:19:27.573Z,101098.50
2023-03-21T00:22:12.378Z,101082.88
2023-03-21T00:24:57.812Z,101088.03
2023-03-21T00:28:01.156Z,101087.19
2023-03-21T00:30:48.389Z,101084.63
2023-03-21T00:33:34.586Z,101076.78
2023-03-21T00:36:19.925Z,101079.38
2023-03-21T00:39:06.104Z,101073.38
2023-03-21T00:41:51.413Z,101074.28
2023-03-21T00:44:36.781Z,101070.78
2023-03-21T00:47:23.066Z,101072.53
2023-03-21T00:50:11.753Z,101058.69
2023-03-21T00:52:56.836Z,101066.44
2023-03-21T00:55:41.848Z,101062.19
2023-03-21T00:58:27.102Z,101058.72
2023-03-21T01:01:11.893Z,101052.63
2023-03-21T01:04:03.953Z,101053.50
2023-03-21T01:06:49.252Z,101052.63
2023-03-21T01:09:33.880Z,101049.13
2023-03-21T01:12:18.724Z,101047.41
2023-03-21T01:15:03.661Z,101046.56
2023-03-21T01:17:49.494Z,101050.03
2023-03-21T01:20:34.332Z,101046.59
2023-03-21T01:23:19.596Z,101044.81
2023-03-21T01:26:05.312Z,101039.63
2023-03-21T01:28:50.581Z,101031.81
2023-03-21T01:31:35.907Z,101044.78
2023-03-21T01:34:21.612Z,101033.56
2023-03-21T01:37:06.790Z,101036.97
2023-03-21T01:39:53.244Z,101035.25
2023-03-21T01:42:39.474Z,101035.28
2023-03-21T01:45:58.582Z,101035.34
2023-03-21T01:48:44.630Z,101030.97
2023-03-21T01:51:33.896Z,101031.84
2023-03-21T01:54:25.742Z,101030.09
2023-03-21T01:57:16.516Z,101027.50
2023-03-21T02:00:13.010Z,101031.84
2023-03-21T02:03:11.697Z,101020.59
2023-03-21T02:06:17.145Z,101026.69
2023-03-21T02:09:08.581Z,101025.78
2023-03-21T02:11:54.882Z,101018.81
2023-03-21T02:14:39.742Z,101015.31
2023-03-21T02:17:46.881Z,101013.66
2023-03-21T02:20:58.852Z,101007.63
2023-03-21T02:23:58.973Z,101005.03
2023-03-21T02:27:15.977Z,101003.28
2023-03-21T02:30:45.543Z,101007.63
2023-03-21T02:33:57.935Z,100999.84
2023-03-21T02:36:48.459Z,100999.00
2023-03-21T02:39:56.052Z,100995.50
2023-03-21T02:43:00.954Z,100994.59
2023-03-21T02:45:54.706Z,100992.88
2023-03-21T02:48:50.927Z,100997.25
2023-03-21T02:51:39.266Z,100993.78
2023-03-21T02:54:41.917Z,100998.09
2023-03-21T02:57:42.228Z,100993.78
2023-03-21T03:00:31.209Z,100981.66
2023-03-21T03:03:27.964Z,100985.97
2023-03-21T03:06:21.154Z,100988.56
2023-03-21T03:09:39.675Z,100991.22
2023-03-21T03:12:34.524Z,100983.34
2023-03-21T03:15:34.440Z,100980.78
2023-03-21T03:18:31.555Z,100979.09
2023-03-21T03:21:37.880Z,100984.28
2023-03-21T03:24:47.424Z,100975.66
2023-03-21T03:27:37.481Z,100973.88
2023-03-21T03:30:32.280Z,100976.47
2023-03-21T03:33:27.077Z,100981.63
2023-03-21T03:36:30.527Z,100973.91
2023-03-21T03:39:18.008Z,100979.91
2023-03-21T03:42:27.156Z,100972.09
2023-03-21T03:45:13.959Z,100970.34
2023-03-21T03:48:08.018Z,100965.19
2023-03-21T03:51:16.687Z,100972.16
2023-03-21T03:54:10.868Z,100968.63
2023-03-21T03:56:57.546Z,100974.75
2023-03-21T03:59:44.842Z,100972.13
2023-03-21T04:02:32.441Z,100966.94
2023-03-21T04:05:21.032Z,100968.66
2023-03-21T04:08:07.081Z,100963.44
2023-03-21T04:10:52.340Z,100961.69
2023-03-21T04:13:37.733Z,100964.31
2023-03-21T04:16:23.395Z,100961.69
2023-03-21T04:19:09.116Z,100962.56
2023-03-21T04:21:54.198Z,100953.03
2023-03-21T04:24:40.405Z,100959.09
2023-03-21T04:27:25.278Z,100947.84
2023-03-21T04:30:12.537Z,100956.50
2023-03-21T04:32:57.328Z,100959.06
2023-03-21T04:35:42.538Z,100953.91
2023-03-21T04:38:30.581Z,100961.69
2023-03-21T04:41:15.320Z,100949.56
2023-03-21T04:44:01.753Z,100949.59
2023-03-21T04:46:46.496Z,100949.63
2023-03-21T04:49:31.820Z,100952.22
2023-03-21T04:52:17.133Z,100948.75
2023-03-21T04:55:02.310Z,100955.72
2023-03-21T04:57:48.008Z,100951.34
2023-03-21T05:00:37.773Z,100952.25
2023-03-21T05:03:23.720Z,100952.22
2023-03-21T05:06:10.582Z,100952.28
2023-03-21T05:08:59.922Z,100951.34
2023-03-21T05:11:44.721Z,100951.38
2023-03-21T05:14:29.930Z,100947.03
2023-03-21T05:17:23.036Z,100945.34
2023-03-21T05:20:12.330Z,100947.09
2023-03-21T05:22:57.302Z,100951.38
2023-03-21T05:25:42.079Z,100946.22
2023-03-21T05:28:31.434Z,100949.66
2023-03-21T05:31:18.229Z,100953.09
2023-03-21T05:34:03.442Z,100959.16
2023-03-21T05:36:48.426Z,100959.16
2023-03-21T05:39:33.116Z,100954.81
2023-03-21T05:42:19.037Z,100953.13
2023-03-21T05:45:04.579Z,100954.81
2023-03-21T05:47:50.041Z,100957.41
2023-03-21T05:50:34.965Z,100951.34
2023-03-21T05:53:21.777Z,100953.06
2023-03-21T05:56:08.824Z,100947.03
2023-03-21T05:58:54.569Z,100954.78
2023-03-21T06:01:39.543Z,100958.25
2023-03-21T06:04:24.750Z,100955.66
2023-03-21T06:07:10.693Z,100948.66
2023-03-21T06:09:55.559Z,100945.25
2023-03-21T06:12:40.307Z,100954.75
2023-03-21T06:15:26.646Z,100956.47
2023-03-21T06:18:11.767Z,100953.91
2023-03-21T06:20:57.407Z,100953.03
2023-03-21T06:23:43.057Z,100958.22
2023-03-21T06:26:28.762Z,100948.66
2023-03-21T06:29:14.311Z,100953.00
2023-03-21T06:31:59.472Z,100941.69
2023-03-21T06:34:45.006Z,100952.97
2023-03-21T06:37:29.958Z,100953.75
2023-03-21T06:40:15.315Z,100945.97
2023-03-21T06:43:00.201Z,100950.31
2023-03-21T06:45:45.648Z,100958.03
2023-03-21T06:48:31.972Z,100955.41
2023-03-21T06:51:17.158Z,100959.72
2023-03-21T06:54:02.047Z,100954.56
2023-03-21T06:56:48.003Z,100959.72
2023-03-21T06:59:32.841Z,100962.34
2023-03-21T07:02:17.889Z,100964.06
2023-03-21T07:05:04.341Z,100970.13
2023-03-21T07:07:49.666Z,100964.94
2023-03-21T07:10:34.998Z,100970.09
2023-03-21T07:13:19.911Z,100971.78
2023-03-21T07:16:06.174Z,100959.66
2023-03-21T07:18:51.125Z,100969.19
2023-03-21T07:21:36.334Z,100966.50
2023-03-21T07:24:21.243Z,100963.84
2023-03-21T07:27:06.568Z,100963.00
2023-03-21T07:29:51.446Z,100962.97
2023-03-21T07:32:37.814Z,100965.50
2023-03-21T07:35:22.806Z,100964.59
2023-03-21T07:38:08.096Z,100955.97
2023-03-21T07:40:53.357Z,100959.34
2023-03-21T07:43:39.712Z,100958.47
2023-03-21T07:46:25.064Z,100956.66
2023-03-21T07:49:10.270Z,100962.75
2023-03-21T07:51:55.253Z,100950.66
2023-03-21T07:54:40.261Z,100949.69
2023-03-21T07:57:25.542Z,100956.50
2023-03-21T08:00:12.512Z,100950.47
2023-03-21T08:02:59.832Z,100949.56
2023-03-21T08:05:45.396Z,100946.09
2023-03-21T08:08:31.710Z,100955.59
2023-03-21T08:11:18.008Z,100947.03
2023-03-21T08:14:04.271Z,100956.50
2023-03-21T08:16:49.333Z,100951.28
2023-03-21T08:19:35.974Z,100947.78
2023-03-21T08:22:21.575Z,100954.63
2023-03-21T08:25:08.378Z,100948.63
2023-03-21T08:27:53.897Z,100955.50
2023-03-21T08:30:39.020Z,100954.63
2023-03-21T08:33:27.033Z,100953.81
2023-03-21T08:36:12.313Z,100951.19
2023-03-21T08:39:05.464Z,100957.19
2023-03-21T08:41:50.665Z,100949.34
2023-03-21T08:44:36.355Z,100951.03
2023-03-21T08:47:22.038Z,100950.84
2023-03-21T08:50:09.276Z,100938.63
2023-03-21T08:52:54.695Z,100944.50
2023-03-21T08:55:39.693Z,100950.38
2023-03-21T08:58:25.926Z,100941.59
2023-03-21T09:01:15.441Z,100950.94
2023-03-21T09:04:00.858Z,100940.50
2023-03-21T09:06:47.635Z,100935.19
2023-03-21T09:09:32.497Z,100937.78
2023-03-21T09:12:17.651Z,100933.34
2023-03-21T09:15:03.566Z,100932.22
2023-03-21T09:17:52.314Z,100940.00
2023-03-21T09:20:38.302Z,100932.19
2023-03-21T09:23:24.282Z,100936.56
2023-03-21T09:26:09.618Z,100940.78
2023-03-21T09:28:55.959Z,100941.44
2023-03-21T09:31:41.235Z,100937.00
2023-03-21T09:34:26.684Z,100932.56
2023-03-21T09:37:13.227Z,100941.38
2023-03-21T09:39:58.303Z,100936.97
2023-03-21T09:43:32.292Z,100938.63
2023-03-21T09:46:42.743Z,100942.97
2023-03-21T09:49:36.249Z,100937.59
2023-03-21T09:52:29.707Z,100933.97
2023-03-21T09:55:21.694Z,100930.50
2023-03-21T09:58:13.751Z,100930.53
2023-03-21T10:01:10.698Z,100928.59
2023-03-21T10:04:01.124Z,100932.75
2023-03-21T10:06:55.331Z,100922.97
2023-03-21T10:09:44.598Z,100928.84
2023-03-21T10:12:32.638Z,100925.78
2023-03-21T10:15:20.793Z,100928.09
2023-03-21T10:18:08.594Z,100927.00
2023-03-21T10:20:55.653Z,100929.75
2023-03-21T10:23:40.438Z,100923.78
2023-03-21T10:26:29.285Z,100934.47
2023-03-21T10:29:16.637Z,100915.38
2023-03-21T10:32:02.949Z,100923.16
2023-03-21T10:37:44.648Z,100923.06
2023-03-21T10:40:29.837Z,100925.44
2023-03-21T10:43:27.306Z,100912.22
2023-03-21T10:46:18.845Z,100917.06
2023-03-21T10:49:07.652Z,100916.94
2023-03-21T10:51:56.386Z,100912.50
2023-03-21T10:54:42.466Z,100907.91
2023-03-21T10:57:27.873Z,100906.88
2023-03-21T11:00:22.076Z,100902.50
2023-03-21T11:03:20.630Z,100902.56
2023-03-21T11:06:22.176Z,100905.41
2023-03-21T11:09:20.622Z,100898.47
2023-03-21T11:12:11.784Z,100894.81
2023-03-21T11:14:57.900Z,100892.19
2023-03-21T11:17:45.458Z,100894.66
2023-03-21T11:20:31.468Z,100897.16
2023-03-21T11:23:19.449Z,100894.38
2023-03-21T11:26:11.536Z,100894.47
2023-03-21T11:28:57.348Z,100888.34
2023-03-21T11:31:42.235Z,100893.41
2023-03-21T11:34:47.336Z,100883.78
2023-03-21T11:37:37.800Z,100883.56
2023-03-21T11:40:31.741Z,100875.91
2023-03-21T11:43:20.251Z,100878.47
2023-03-21T11:46:13.365Z,100876.66
2023-03-21T11:49:00.337Z,100875.78
2023-03-21T11:51:53.959Z,100868.47
2023-03-21T11:54:57.707Z,100856.06
2023-03-21T11:57:47.600Z,100858.50
2023-03-21T12:00:43.133Z,100861.25
2023-03-21T12:03:48.766Z,100852.69
2023-03-21T12:06:38.017Z,100847.28
2023-03-21T12:09:34.841Z,100841.13
2023-03-21T12:12:47.398Z,100839.31
2023-03-21T12:15:38.762Z,100840.91
2023-03-21T12:18:49.644Z,100833.19
2023-03-21T12:22:00.489Z,100836.53
2023-03-21T12:24:50.421Z,100832.16
2023-03-21T12:28:02.815Z,100830.22
2023-03-21T12:30:59.995Z,100825.94
2023-03-21T12:33:57.046Z,100819.53
2023-03-21T12:37:07.074Z,100821.97
2023-03-21T12:39:58.251Z,100811.09
2023-03-21T12:43:26.123Z,100814.69
2023-03-21T12:46:39.319Z,100811.13
2023-03-21T12:49:42.892Z,100812.59
2023-03-21T12:52:40.291Z,100809.25
2023-03-21T12:55:29.929Z,100792.03
2023-03-21T12:58:19.637Z,100797.13
2023-03-21T13:01:06.655Z,100796.94
2023-03-21T13:04:31.622Z,100797.81
2023-03-21T13:07:20.302Z,100797.59
2023-03-21T13:10:15.682Z,100798.59
2023-03-21T13:13:10.921Z,100799.00
2023-03-21T13:16:16.351Z,100797.66
2023-03-21T13:19:11.278Z,100791.06
2023-03-21T13:22:18.227Z,100789.75
2023-03-21T13:25:21.954Z,100790.75
2023-03-21T13:28:07.279Z,100769.84
2023-03-21T13:30:52.570Z,100778.56
2023-03-21T13:33:44.945Z,100772.50
2023-03-21T13:36:32.416Z,100776.09
2023-03-21T13:39:20.709Z,100779.31
2023-03-21T13:42:18.301Z,100774.97
2023-03-21T13:45:11.698Z,100774.34
2023-03-21T13:48:01.126Z,100774.13
2023-03-21T13:51:00.859Z,100772.56
2023-03-21T13:54:08.550Z,100766.69
2023-03-21T13:56:59.953Z,100766.03
2023-03-21T13:59:46.164Z,100763.59
2023-03-21T14:02:38.382Z,100759.97
2023-03-21T14:05:26.367Z,100758.03
2023-03-21T14:08:27.904Z,100759.31
2023-03-21T14:11:19.175Z,100757.50
2023-03-21T14:14:05.123Z,100753.34
2023-03-21T14:16:53.471Z,100750.75
2023-03-21T14:19:39.110Z,100749.84
2023-03-21T14:22:24.173Z,100745.53
2023-03-21T14:25:14.577Z,100745.44
2023-03-21T14:28:04.255Z,100752.34
2023-03-21T14:30:55.919Z,100748.94
2023-03-21T14:33:47.751Z,100747.31
2023-03-21T14:36:43.136Z,100750.06
2023-03-21T14:39:33.652Z,100744.75
2023-03-21T14:42:20.742Z,100735.41
2023-03-21T14:45:14.591Z,100744.13
2023-03-21T14:48:08.508Z,100730.19
2023-03-21T14:50:56.219Z,100730.28
2023-03-21T14:53:42.895Z,100730.19
2023-03-21T14:56:29.121Z,100720.75
2023-03-21T14:59:18.748Z,100724.91
2023-03-21T15:02:15.496Z,100719.81
2023-03-21T15:05:10.590Z,100717.19
2023-03-21T15:08:01.870Z,100715.53
2023-03-21T15:11:09.665Z,100712.88
2023-03-21T15:13:55.673Z,100714.41
2023-03-21T15:16:41.297Z,100705.69
2023-03-21T15:19:35.478Z,100706.75
2023-03-21T15:22:37.244Z,100705.94
2023-03-21T15:25:28.766Z,100703.28
2023-03-21T15:28:14.908Z,100707.66
2023-03-21T15:31:00.195Z,100702.53
2023-03-21T15:33:51.084Z,100692.16
2023-03-21T15:36:48.466Z,100699.91
2023-03-21T15:39:36.137Z,100704.22
2023-03-21T15:42:47.273Z,100696.44
2023-03-21T15:45:32.183Z,100704.28
2023-03-21T15:48:23.138Z,100695.75
2023-03-21T15:51:21.370Z,100691.97
2023-03-21T15:54:15.266Z,100687.81
2023-03-21T15:57:09.662Z,100688.69
2023-03-21T16:00:03.121Z,100690.44
2023-03-21T16:02:54.723Z,100680.78
2023-03-21T16:05:42.609Z,100681.78
2023-03-21T16:08:32.418Z,100678.66
2023-03-21T16:11:29.837Z,100678.63
2023-03-21T16:14:14.881Z,100676.84
2023-03-21T16:17:00.018Z,100680.25
2023-03-21T16:19:45.136Z,100675.19
2023-03-21T16:22:35.162Z,100661.19
2023-03-21T16:25:21.878Z,100670.81
2023-03-21T16:28:16.378Z,100664.78
2023-03-21T16:31:01.492Z,100664.88
2023-03-21T16:33:47.377Z,100667.50
2023-03-21T16:36:37.102Z,100663.28
2023-03-21T16:39:25.231Z,100659.69
2023-03-21T16:42:12.791Z,100655.41
2023-03-21T16:44:58.935Z,100655.66
2023-03-21T16:47:44.728Z,100640.91
2023-03-21T16:50:34.619Z,100639.03
2023-03-21T16:53:19.779Z,100643.38
2023-03-21T16:56:07.681Z,100651.31
2023-03-21T16:58:56.060Z,100652.09
2023-03-21T17:01:45.986Z,100641.63
2023-03-21T17:04:31.557Z,100646.03
2023-03-21T17:07:17.973Z,100642.53
2023-03-21T17:10:03.488Z,100640.91
2023-03-21T17:12:49.119Z,100639.00
2023-03-21T17:15:34.358Z,100635.59
2023-03-21T17:18:19.340Z,100633.94
2023-03-21T17:21:15.961Z,100626.94
2023-03-21T17:24:00.882Z,100626.97
2023-03-21T17:26:45.788Z,100621.06
2023-03-21T17:29:31.324Z,100629.84
2023-03-21T17:32:17.991Z,100628.28
2023-03-21T17:35:04.231Z,100617.78
2023-03-21T17:37:53.776Z,100606.50
2023-03-21T17:40:39.197Z,100620.56
2023-03-21T17:43:24.317Z,100605.78
2023-03-21T17:46:25.134Z,100617.81
2023-03-21T17:49:14.237Z,100627.44
2023-03-21T17:51:59.549Z,100630.91
2023-03-21T17:54:44.402Z,100637.94
2023-03-21T17:57:29.306Z,100633.69
2023-03-21T18:00:18.324Z,100638.00
2023-03-21T18:03:03.566Z,100627.50
2023-03-21T18:05:49.723Z,100633.69
2023-03-21T18:08:35.267Z,100633.75
2023-03-21T18:11:22.868Z,100633.13
2023-03-21T18:14:16.248Z,100616.41
2023-03-21T18:17:03.377Z,100620.75
2023-03-21T18:19:48.839Z,100636.25
2023-03-21T18:22:34.171Z,100631.22
2023-03-21T18:25:19.163Z,100636.25
2023-03-21T18:28:11.539Z,100631.06
2023-03-21T18:31:09.576Z,100633.69
2023-03-21T18:33:56.092Z,100628.56
2023-03-21T18:36:42.736Z,100623.50
2023-03-21T18:39:28.169Z,100626.91
2023-03-21T18:42:17.925Z,100626.91
2023-03-21T18:45:13.910Z,100625.94
2023-03-21T18:47:59.148Z,100621.66
2023-03-21T18:50:44.133Z,100620.75
2023-03-21T18:53:34.858Z,100616.50
2023-03-21T18:56:58.028Z,100613.06
2023-03-21T18:59:26.248Z,100618.25
2023-03-21T19:02:15.288Z,100620.84
2023-03-21T19:05:01.590Z,100627.00
2023-03-21T19:07:47.859Z,100623.56
2023-03-21T19:10:34.881Z,100620.94
2023-03-21T19:13:22.433Z,100622.56
2023-03-21T19:16:11.240Z,100619.22
2023-03-21T19:18:57.655Z,100620.97
2023-03-21T19:21:43.406Z,100619.28
2023-03-21T19:24:29.138Z,100621.09
2023-03-21T19:27:17.195Z,100623.72
2023-03-21T19:30:13.893Z,100624.72
2023-03-21T19:33:01.535Z,100620.28
2023-03-21T19:35:48.069Z,100627.22
2023-03-21T19:38:33.355Z,100629.81
2023-03-21T19:41:22.551Z,100625.53
2023-03-21T19:44:08.042Z,100633.41
2023-03-21T19:46:54.674Z,100636.81
2023-03-21T19:50:27.727Z,100642.97
2023-03-21T19:52:49.872Z,100638.56
2023-03-21T19:55:36.536Z,100642.09
2023-03-21T19:58:22.791Z,100636.97
2023-03-21T20:01:12.388Z,100641.31
2023-03-21T20:03:59.460Z,100637.69
2023-03-21T20:06:53.426Z,100633.50
2023-03-21T20:09:51.457Z,100638.72
2023-03-21T20:12:37.795Z,100630.84
2023-03-21T20:15:26.719Z,100626.41
2023-03-21T20:18:14.234Z,100624.94
2023-03-21T20:21:02.173Z,100631.63
2023-03-21T20:23:51.109Z,100624.72
2023-03-21T20:26:37.328Z,100630.03
2023-03-21T20:32:33.296Z,100618.75
2023-03-21T20:35:28.916Z,100623.03
2023-03-21T20:38:27.057Z,100618.75
2023-03-21T20:41:12.916Z,100625.69
2023-03-21T20:47:07.808Z,100617.91
2023-03-21T20:49:52.699Z,100625.69
2023-03-21T20:53:05.627Z,100616.31
2023-03-21T20:55:47.708Z,100609.38
2023-03-21T20:58:59.389Z,100609.38
2023-03-21T21:01:46.164Z,100608.41
2023-03-21T21:04:52.498Z,100604.13
2023-03-21T21:07:38.738Z,100613.56
2023-03-21T21:10:26.865Z,100618.69
2023-03-21T21:13:12.144Z,100617.78
2023-03-21T21:15:58.672Z,100604.75
2023-03-21T21:18:43.918Z,100603.97
2023-03-21T21:21:30.967Z,100605.66
2023-03-21T21:24:16.457Z,100602.22
2023-03-21T21:27:01.408Z,100604.88
2023-03-21T21:29:48.029Z,100602.28
2023-03-21T21:32:33.697Z,100602.28
2023-03-21T21:35:20.564Z,100601.47
2023-03-21T21:38:05.574Z,100606.66
2023-03-21T21:40:52.150Z,100603.97
2023-03-21T21:43:37.042Z,100597.94
2023-03-21T21:46:22.043Z,100593.69
2023-03-21T21:49:07.002Z,100582.31
2023-03-21T21:51:52.513Z,100584.25
2023-03-21T21:54:39.510Z,100576.50
2023-03-21T21:57:24.728Z,100569.69
2023-03-21T22:00:13.408Z,100573.94
2023-03-21T22:03:00.483Z,100570.56
2023-03-21T22:05:47.967Z,100580.16
2023-03-21T22:08:33.775Z,100582.84
2023-03-21T22:11:19.238Z,100582.03
2023-03-21T22:14:04.378Z,100573.31
2023-03-21T22:16:49.308Z,100581.97
2023-03-21T22:19:35.544Z,100569.09
2023-03-21T22:22:20.673Z,100569.09
2023-03-21T22:25:08.316Z,100566.59
2023-03-21T22:27:53.336Z,100566.47
2023-03-21T22:30:38.887Z,100565.81
2023-03-21T22:33:25.645Z,100568.63
2023-03-21T22:36:11.722Z,100565.19
2023-03-21T22:38:57.004Z,100566.84
2023-03-21T22:41:41.849Z,100570.41
2023-03-21T22:44:34.310Z,100570.25
2023-03-21T22:47:19.989Z,100570.47
2023-03-21T22:50:06.473Z,100570.25
2023-03-21T22:52:52.961Z,100564.25
2023-03-21T22:55:38.846Z,100568.63
2023-03-21T22:58:24.158Z,100559.84
2023-03-21T23:01:09.050Z,100559.84
2023-03-21T23:03:54.293Z,100558.22
2023-03-21T23:06:39.436Z,100559.13
2023-03-21T23:09:24.920Z,100545.31
2023-03-21T23:12:10.454Z,100554.88
2023-03-21T23:14:55.776Z,100554.19
2023-03-21T23:17:41.024Z,100549.03
2023-03-21T23:20:26.187Z,100550.94
2023-03-21T23:23:11.314Z,100551.72
2023-03-21T23:25:57.009Z,100543.00
2023-03-21T23:28:42.398Z,100545.56
2023-03-21T23:31:28.025Z,100539.53
2023-03-21T23:34:13.518Z,100536.13
2023-03-21T23:36:58.635Z,100536.09
2023-03-21T23:39:45.197Z,100526.66
2023-03-21T23:42:31.224Z,100531.00
2023-03-21T23:45:16.164Z,100536.34
2023-03-21T23:48:01.347Z,100531.97
2023-03-21T23:50:46.096Z,100534.63
2023-03-21T23:53:31.448Z,100529.53
2023-03-21T23:56:21.842Z,100537.44
2023-03-21T23:59:07.474Z,100534.06
